Latest Weather Observations for Roma

IDQ60801

Issued at 4:09 pm EST Tuesday 26 July 2016 (issued every 30 minutes, with the page automatically refreshed every 10 minutes)

About weather observations | Map of weather stations | Latest weather observations for QLD | Other Formats
Station Details ID: 043091 Name: ROMA AIRPORT Lat: -26.55 Lon: 148.77 Height: 307.38 m
Data from the previous 72 hours. | See also: Recent months at Roma
Date/Time
EST
Temp
°C
App
Temp
°C
Dew
Point
°C
Rel
Hum
%
Delta-T
°C
Wind Press
QNH
hPa
Press
MSL
hPa
Rain since
9am
mm
Dir  Spd
km/h
Gust
km/h
Spd
kts
Gust
kts
26/04:00pm 16.7 15.0 1.6 36 6.8 CALM 0 0 0 0 1018.0 1018.0 0.0
26/03:30pm 17.1 15.3 1.1 34 7.2 CALM 0 0 0 0 1018.1 1018.1 0.0
26/03:00pm 17.4 14.2 1.0 33 7.3 ESE 7 11 4 6 1018.2 1018.2 0.0
26/02:30pm 18.2 15.3 1.3 32 7.7 NE 6 9 3 5 1018.5 1018.5 0.0
26/02:00pm 17.7 14.2 1.2 33 7.4 E 9 17 5 9 1018.9 1018.9 0.0
26/01:30pm 17.6 13.8 1.6 34 7.3 ESE 11 19 6 10 1019.2 1019.2 0.0
26/01:00pm 16.9 13.9 2.1 37 6.7 ESE 7 17 4 9 1019.7 1019.8 0.0
26/12:30pm 16.5 13.7 3.2 41 6.2 SE 7 13 4 7 1020.2 1020.3 0.0
26/12:00pm 15.8 11.8 2.9 42 5.9 SSE 13 20 7 11 1020.8 1020.8 0.0
26/11:30am 15.0 11.8 2.9 44 5.5 ESE 9 15 5 8 1021.5 1021.5 0.0
26/11:00am 14.5 10.4 2.1 43 5.5 SE 13 17 7 9 1021.9 1021.9 0.0
26/10:30am 14.1 10.6 3.3 48 4.9 SE 11 15 6 8 1021.8 1021.8 0.0
26/10:00am 12.9 10.4 4.6 57 3.9 SE 7 11 4 6 1022.3 1022.3 0.0
26/09:30am 11.8 9.6 5.2 64 3.1 E 6 7 3 4 1022.2 1022.2 0.0
26/09:00am 10.9 8.7 5.2 68 2.6 SSW 6 7 3 4 1022.2 1022.2 0.0
26/08:30am 10.2 9.3 6.0 75 2.0 CALM 0 0 0 0 1022.1 1022.1 0.0
26/08:00am 9.1 7.6 6.7 85 1.1 SW 4 7 2 4 1022.1 1022.1 0.0
26/07:30am 7.7 6.7 5.5 86 1.0 CALM 0 7 0 4 1021.8 1021.8 0.0
26/07:00am 7.8 5.5 5.6 86 1.0 WSW 7 9 4 5 1021.4 1021.4 0.0
26/06:30am 7.5 5.6 5.1 85 1.1 W 4 7 2 4 1021.4 1021.4 0.0
26/06:00am 7.4 4.7 5.4 87 0.9 WSW 9 11 5 6 1021.1 1021.1 0.0
26/05:30am 7.2 6.1 5.2 87 0.9 CALM 0 0 0 0 1020.6 1020.6 0.0
26/05:00am 7.0 5.8 4.7 85 1.0 CALM 0 0 0 0 1020.8 1020.8 0.0
26/04:30am 8.1 7.2 6.2 88 0.9 CALM 0 0 0 0 1020.4 1020.5 0.0
26/04:00am 8.3 7.5 6.4 88 0.9 CALM 0 0 0 0 1020.2 1020.3 0.0
26/03:30am 8.3 7.1 6.3 87 0.9 NNE 2 7 1 4 1020.2 1020.3 0.0
26/03:00am 8.5 7.7 6.3 86 1.0 CALM 0 0 0 0 1020.2 1020.3 0.0
26/02:30am 8.3 7.0 5.9 85 1.1 NW 2 6 1 3 1020.1 1020.2 0.0
26/02:00am 8.2 6.5 5.7 84 1.1 NNW 4 7 2 4 1020.0 1020.1 0.0
26/01:30am 8.7 7.7 5.8 82 1.3 CALM 0 0 0 0 1020.4 1020.5 0.0
26/01:00am 9.1 6.6 4.7 74 2.0 WSW 7 11 4 6 1020.2 1020.3 0.0
26/12:30am 9.3 6.6 5.7 78 1.7 WSW 9 13 5 7 1020.4 1020.5 0.0
26/12:00am 8.9 6.7 5.1 77 1.7 WNW 6 7 3 4 1020.3 1020.4 0.0
 
Date/Time
EST
Temp
°C
App
Temp
°C
Dew
Point
°C
Rel
Hum
%
Delta-T
°C
Wind Press
QNH
hPa
Press
MSL
hPa
Rain since
9am
mm
Dir  Spd
km/h
Gust
km/h
Spd
kts
Gust
kts
25/11:30pm 9.4 7.1 5.6 77 1.8 NW 7 9 4 5 1020.7 1020.7 0.0
25/11:00pm 9.8 7.5 5.6 75 1.9 SSW 7 9 4 5 1020.4 1020.5 0.0
25/10:30pm 9.6 7.5 5.6 76 1.9 S 6 9 3 5 1020.1 1020.2 0.0
25/10:00pm 10.6 9.1 4.9 68 2.6 SSW 2 7 1 4 1020.9 1020.9 0.0
25/09:30pm 9.7 8.5 4.7 71 2.3 CALM 0 0 0 0 1020.4 1020.5 0.0
25/09:00pm 9.4 7.0 4.2 70 2.3 SSW 6 9 3 5 1020.3 1020.4 0.0
25/08:30pm 10.1 7.1 4.0 66 2.7 SW 9 11 5 6 1020.6 1020.6 0.0
25/08:00pm 11.1 7.8 4.3 63 3.1 SW 11 13 6 7 1020.4 1020.5 0.0
25/07:30pm 11.7 8.0 4.4 61 3.4 WSW 13 15 7 8 1020.2 1020.3 0.0
25/07:00pm 12.5 8.8 4.5 58 3.7 SW 13 17 7 9 1019.7 1019.8 0.0
25/06:30pm 12.7 9.7 3.9 55 4.0 SSW 9 11 5 6 1019.3 1019.3 0.0
25/06:00pm 12.6 9.0 2.7 51 4.4 WSW 11 13 6 7 1019.1 1019.1 0.0
25/05:30pm 14.2 10.5 2.1 44 5.4 SW 11 13 6 7 1019.0 1019.0 0.0
25/05:00pm 17.3 12.3 1.3 34 7.2 SW 17 20 9 11 1018.7 1018.7 0.0
25/04:30pm 18.2 14.1 2.5 35 7.3 SW 13 17 7 9 1018.7 1018.7 0.0
25/04:00pm 18.4 13.4 1.4 32 7.7 SW 17 24 9 13 1018.4 1018.4 0.0
25/03:30pm 18.5 13.9 1.5 32 7.8 SSW 15 20 8 11 1018.3 1018.3 0.0
25/03:00pm 18.5 14.0 1.9 33 7.6 SW 15 22 8 12 1018.3 1018.3 0.0
25/02:30pm 18.3 13.2 0.9 31 7.8 SW 17 24 9 13 1018.5 1018.5 0.0
25/02:00pm 18.2 13.7 2.1 34 7.4 SW 15 24 8 13 1018.7 1018.7 0.0
25/01:30pm 17.9 13.9 2.6 36 7.1 SW 13 22 7 12 1018.9 1018.9 0.0
25/01:00pm 17.4 13.5 1.4 34 7.2 SSW 11 20 6 11 1019.3 1019.3 0.0
25/12:30pm 17.9 13.0 2.2 35 7.2 SSW 17 32 9 17 1019.7 1019.8 0.0
25/12:00pm 17.0 12.1 2.2 37 6.8 SW 17 22 9 12 1020.4 1020.5 0.0
25/11:30am 16.8 12.4 2.8 39 6.5 SW 15 24 8 13 1020.9 1020.9 0.0
25/11:00am 16.7 11.9 2.7 39 6.4 SSW 17 24 9 13 1021.2 1021.2 0.0
25/10:30am 16.4 11.3 2.8 40 6.3 SSW 19 28 10 15 1021.4 1021.4 0.0
25/10:00am 15.9 11.0 2.0 39 6.3 SSW 17 22 9 12 1021.4 1021.4 0.0
25/09:30am 15.0 11.9 3.5 46 5.3 SSW 9 15 5 8 1021.1 1021.1 0.0
25/09:00am 13.3 10.2 5.5 59 3.7 WSW 11 15 6 8 1021.3 1021.3 0.0
25/08:30am 11.4 8.3 5.5 67 2.8 WSW 11 15 6 8 1021.2 1021.2 0.0
25/08:00am 9.5 7.2 5.5 76 1.8 W 7 11 4 6 1021.1 1021.1 0.0
25/07:30am 6.4 4.5 4.7 89 0.8 WSW 4 7 2 4 1020.9 1020.9 0.0
25/07:00am 4.4 2.9 2.9 90 0.6 CALM 0 0 0 0 1020.7 1020.7 0.0
25/06:30am 4.5 3.0 2.8 89 0.7 CALM 0 0 0 0 1020.3 1020.4 0.0
25/06:00am 4.9 3.5 3.4 90 0.6 CALM 0 0 0 0 1019.9 1020.0 0.0
25/05:30am 4.7 2.8 3.0 89 0.7 W 2 6 1 3 1019.9 1020.0 0.0
25/05:00am 4.4 1.4 2.3 86 0.9 NW 7 9 4 5 1019.5 1019.5 0.0
25/04:30am 4.5 1.5 2.2 85 0.9 W 7 9 4 5 1019.4 1019.4 0.0
25/04:00am 5.7 2.8 2.5 80 1.3 WSW 7 9 4 5 1019.2 1019.2 0.0
25/03:30am 7.5 6.3 4.6 82 1.3 CALM 0 0 0 0 1019.2 1019.2 0.0
25/03:00am 8.5 7.4 5.1 79 1.5 CALM 0 4 0 2 1019.2 1019.2 0.0
25/02:30am 9.2 6.9 5.8 79 1.6 W 7 9 4 5 1019.2 1019.2 0.0
25/02:00am 9.0 6.4 5.9 81 1.4 WNW 9 9 5 5 1019.2 1019.2 0.0
25/01:30am 9.0 5.8 5.0 76 1.8 WSW 11 13 6 7 1019.2 1019.2 0.0
25/01:00am 9.3 6.7 5.9 79 1.6 SW 9 15 5 8 1018.9 1018.9 0.0
25/12:30am 9.1 8.3 6.4 83 1.3 CALM 0 6 0 3 1018.8 1018.8 0.0
25/12:00am 9.6 7.4 6.0 78 1.7 WSW 7 7 4 4 1018.7 1018.7 0.0
 
Date/Time
EST
Temp
°C
App
Temp
°C
Dew
Point
°C
Rel
Hum
%
Delta-T
°C
Wind Press
QNH
hPa
Press
MSL
hPa
Rain since
9am
mm
Dir  Spd
km/h
Gust
km/h
Spd
kts
Gust
kts
24/11:30pm 10.4 7.7 5.8 73 2.2 WSW 9 11 5 6 1018.7 1018.7 0.0
24/11:00pm 11.5 8.0 5.4 66 2.9 SW 13 13 7 7 1018.6 1018.6 0.0
24/10:30pm 12.6 8.1 6.0 64 3.2 SW 19 19 10 10 1018.3 1018.3 0.0
24/10:00pm 12.6 8.9 6.2 65 3.1 SW 15 17 8 9 1018.0 1018.0 0.0
24/09:30pm 10.9 8.8 6.5 74 2.1 WSW 7 11 4 6 1017.8 1017.8 0.0
24/09:00pm 10.9 8.8 6.8 76 2.0 W 7 7 4 4 1017.5 1017.5 0.0
24/08:30pm 12.5 10.8 7.4 71 2.5 WSW 6 7 3 4 1017.3 1017.3 0.0
24/08:00pm 13.2 12.3 6.1 62 3.4 CALM 0 0 0 0 1016.6 1016.6 0.0
24/07:30pm 13.5 12.6 6.1 61 3.6 CALM 0 0 0 0 1016.1 1016.1 0.0
24/07:00pm 14.5 13.7 6.6 59 3.9 CALM 0 0 0 0 1015.9 1015.9 0.0
24/06:30pm 14.3 12.3 6.2 58 3.9 SSW 6 7 3 4 1015.4 1015.4 0.0
24/06:00pm 16.0 13.6 5.3 49 5.2 SSW 7 9 4 5 1015.1 1015.1 0.0
24/05:30pm 17.5 13.9 5.1 44 6.0 SSW 13 15 7 8 1014.8 1014.8 0.0
24/05:00pm 20.7 17.0 4.3 34 8.1 SW 13 17 7 9 1014.5 1014.5 0.0
24/04:30pm 21.6 17.8 3.8 31 8.7 WSW 13 19 7 10 1014.3 1014.3 0.0
24/04:00pm 21.5 18.7 5.0 34 8.3 WSW 9 13 5 7 1014.3 1014.3 0.0
24/03:30pm 21.4 17.7 4.5 33 8.4 WSW 13 20 7 11 1014.4 1014.4 0.0
24/03:00pm 21.2 17.9 4.3 33 8.3 WSW 11 19 6 10 1014.5 1014.5 0.0
24/02:30pm 20.7 17.0 4.7 35 7.9 WSW 13 20 7 11 1014.4 1014.4 0.0
24/02:00pm 21.1 17.7 3.8 32 8.4 NW 11 24 6 13 1014.8 1014.8 0.0
24/01:30pm 20.4 17.4 4.0 34 8.0 N 9 19 5 10 1015.1 1015.1 0.0
24/01:00pm 19.1 16.1 4.1 37 7.3 NNE 9 15 5 8 1015.5 1015.5 0.0
24/12:30pm 18.5 14.7 3.9 38 7.0 NNW 13 20 7 11 1016.3 1016.3 0.0
24/12:00pm 18.4 15.1 2.7 35 7.3 NNE 9 17 5 9 1016.9 1017.0 0.0
24/11:30am 17.2 13.4 2.0 36 6.9 N 11 17 6 9 1017.5 1017.5 0.0
24/11:00am 17.1 13.7 3.8 41 6.3 NNE 11 17 6 9 1017.8 1017.8 0.0
24/10:30am 16.1 13.6 4.8 47 5.4 NE 7 11 4 6 1018.5 1018.5 0.0
24/10:00am 15.5 12.2 4.3 47 5.3 NE 11 17 6 9 1018.6 1018.6 0.0
24/09:30am 14.1 10.7 4.1 51 4.7 NE 11 17 6 9 1018.8 1018.8 0.0
24/09:00am 13.1 9.8 4.5 56 4.0 ENE 11 17 6 9 1018.7 1018.7 0.0
24/08:30am 12.3 10.4 5.0 61 3.4 NE 4 9 2 5 1018.6 1018.6 0.0
24/08:00am 9.3 8.4 6.2 81 1.5 CALM 0 6 0 3 1018.6 1018.6 0.0
24/07:30am 6.3 4.3 4.6 89 0.7 NE 4 6 2 3 1018.3 1018.3 0.0
24/07:00am 5.3 2.6 3.8 90 0.6 N 7 9 4 5 1018.0 1018.0 0.0
24/06:30am 5.0 2.2 3.3 89 0.7 N 7 9 4 5 1017.6 1017.6 0.0
24/06:00am 5.0 2.4 3.0 87 0.8 NNE 6 7 3 4 1017.4 1017.4 0.0
24/05:30am 5.5 3.7 3.7 88 0.8 N 2 7 1 4 1017.1 1017.1 0.0
24/05:00am 5.3 2.5 3.3 87 0.8 WNW 7 7 4 4 1016.6 1016.6 0.0
24/04:30am 5.7 2.9 2.9 82 1.2 NW 7 9 4 5 1016.1 1016.1 0.0
24/04:00am 6.9 4.4 3.7 80 1.4 NNW 6 7 3 4 1016.2 1016.2 0.0
24/03:30am 8.4 7.3 5.0 79 1.5 CALM 0 0 0 0 1016.2 1016.2 0.0
24/03:00am 8.8 6.5 4.8 76 1.8 S 6 7 3 4 1016.5 1016.5 0.0
24/02:30am 9.2 5.9 4.6 73 2.1 SSW 11 13 6 7 1016.7 1016.7 0.0
24/02:00am 9.3 6.4 4.7 73 2.1 S 9 11 5 6 1016.9 1017.0 0.0
24/01:30am 8.8 5.9 4.4 74 2.0 S 9 11 5 6 1017.3 1017.3 0.0
24/01:00am 9.5 5.7 4.1 69 2.4 S 13 15 7 8 1017.3 1017.3 0.0
24/12:30am 9.6 6.3 4.4 70 2.3 SSE 11 13 6 7 1017.1 1017.1 0.0
24/12:00am 10.1 6.6 5.3 72 2.2 S 13 15 7 8 1016.9 1017.0 0.0
 
Date/Time
EST
Temp
°C
App
Temp
°C
Dew
Point
°C
Rel
Hum
%
Delta-T
°C
Wind Press
QNH
hPa
Press
MSL
hPa
Rain since
9am
mm
Dir  Spd
km/h
Gust
km/h
Spd
kts
Gust
kts
23/11:30pm 10.0 7.3 5.4 73 2.1 SSW 9 11 5 6 1016.5 1016.5 0.0
23/11:00pm 10.2 7.4 5.2 71 2.3 SW 9 9 5 5 1016.3 1016.3 0.0
23/10:30pm 11.7 10.8 6.0 68 2.7 CALM 0 0 0 0 1016.1 1016.1 0.0
23/10:00pm 12.4 10.3 6.7 68 2.8 SSW 7 9 4 5 1016.1 1016.1 0.0
23/09:30pm 13.4 10.7 7.2 66 3.1 SSW 11 13 6 7 1016.0 1016.0 0.0
23/09:00pm 13.3 10.4 8.0 70 2.7 SSW 13 17 7 9 1015.7 1015.7 0.0
23/08:30pm 13.7 10.8 8.3 70 2.7 SSW 13 15 7 8 1015.3 1015.3 0.0
23/08:00pm 14.4 12.4 8.8 69 2.9 SSW 9 11 5 6 1015.2 1015.2 0.0
23/07:30pm 14.6 12.3 9.0 69 2.9 SSW 11 13 6 7 1015.1 1015.1 0.0
23/07:00pm 15.5 13.3 8.0 61 3.8 SW 9 11 5 6 1014.8 1014.8 0.0
23/06:30pm 16.7 14.9 8.1 57 4.4 SW 7 9 4 5 1014.3 1014.3 0.0
23/06:00pm 18.0 15.5 8.0 52 5.2 WSW 11 15 6 8 1014.0 1013.9 0.0
23/05:30pm 20.1 16.8 8.1 46 6.3 WSW 15 19 8 10 1014.0 1013.9 0.0
23/05:00pm 22.3 18.6 8.1 40 7.6 WSW 17 22 9 12 1013.5 1013.5 0.0
23/04:30pm 23.1 19.1 8.4 39 7.9 WSW 19 24 10 13 1013.3 1013.3 0.0

Other Formats:

Comma delimited format used in spreadsheet applications
http://www.bom.gov.au/fwo/IDQ60801/IDQ60801.94515.axf

JavaScript Object Notation format (JSON) in row-major order
http://www.bom.gov.au/fwo/IDQ60801/IDQ60801.94515.json